Matthewstown, North Carolina
Current Conditions -  °F | °C
As of 2:54 PM on Sunday 21 Dec 2014 (Local Time) from KGSO Reporting Station
Overcast Overcast  
Wind Chill: 47°   Ceiling: 2600
Heat Index: 47°   Visibility: 8mi
Dew Point: 35°   Wind: 0mph
Humidity: 63%   Direction: NA
Pressure: 30.21"   Gusts: NA
Location:  36.1188°N, 80.075°W
Report Text: KGSO 211954Z 00000KT 8SM BKN026 OVC040 08/02 A3021 RMK AO2 SLP231 T00830017
Loading
Personal Weather Stations






























Interactive Weather Map New forecast layout! Learn more

10-Day Weather Forecast

Advertisements
Track Severe Weather on mobile